createdAt,value
2022-12-01T00:01:12.044Z,10.10
2022-12-01T00:03:39.360Z,9.63
2022-12-01T00:06:14.578Z,9.00
2022-12-01T00:08:42.498Z,9.13
2022-12-01T00:11:11.692Z,10.00
2022-12-01T00:13:38.580Z,10.13
2022-12-01T00:16:16.472Z,10.23
2022-12-01T00:18:43.563Z,10.23
2022-12-01T00:21:17.972Z,11.02
2022-12-01T00:23:50.857Z,10.40
2022-12-01T00:26:20.404Z,11.38
2022-12-01T00:28:52.213Z,11.20
2022-12-01T00:31:19.987Z,11.68
2022-12-01T00:33:46.836Z,12.05
2022-12-01T00:36:14.346Z,11.83
2022-12-01T00:38:41.555Z,12.32
2022-12-01T00:41:09.058Z,12.05
2022-12-01T00:43:36.048Z,12.93
2022-12-01T00:46:03.207Z,12.15
2022-12-01T00:48:30.100Z,12.23
2022-12-01T00:50:57.047Z,11.85
2022-12-01T00:53:24.265Z,12.80
2022-12-01T00:55:51.255Z,12.82
2022-12-01T00:58:18.005Z,12.48
2022-12-01T01:00:45.017Z,12.17
2022-12-01T01:03:11.975Z,12.88
2022-12-01T01:05:40.605Z,12.43
2022-12-01T01:08:12.188Z,11.98
2022-12-01T01:10:42.297Z,12.60
2022-12-01T01:13:09.585Z,13.53
2022-12-01T01:15:36.767Z,12.38
2022-12-01T01:18:04.080Z,12.15
2022-12-01T01:20:31.641Z,12.27
2022-12-01T01:22:59.037Z,12.52
2022-12-01T01:25:25.979Z,12.57
2022-12-01T01:27:52.792Z,11.18
2022-12-01T01:30:20.248Z,12.43
2022-12-01T01:32:47.437Z,10.75
2022-12-01T01:35:14.251Z,11.18
2022-12-01T01:37:41.017Z,12.23
2022-12-01T01:40:08.430Z,11.55
2022-12-01T01:42:35.146Z,12.05
2022-12-01T01:45:01.969Z,12.15
2022-12-01T01:47:40.783Z,11.88
2022-12-01T01:50:11.329Z,11.93
2022-12-01T01:52:55.033Z,12.38
2022-12-01T01:55:21.860Z,12.15
2022-12-01T01:57:48.761Z,12.88
2022-12-01T02:00:18.849Z,11.60
2022-12-01T02:02:47.433Z,12.20
2022-12-01T02:05:32.118Z,12.77
2022-12-01T02:08:00.335Z,12.82
2022-12-01T02:11:04.890Z,12.35
2022-12-01T02:13:43.470Z,12.23
2022-12-01T02:16:28.385Z,12.37
2022-12-01T02:19:17.002Z,11.70
2022-12-01T02:22:03.019Z,12.57
2022-12-01T02:24:49.101Z,12.30
2022-12-01T02:27:30.984Z,12.70
2022-12-01T02:30:03.953Z,12.10
2022-12-01T02:32:44.175Z,12.63
2022-12-01T02:35:29.952Z,12.35
2022-12-01T02:38:18.137Z,12.40
2022-12-01T02:40:56.226Z,11.80
2022-12-01T02:43:29.574Z,11.90
2022-12-01T02:46:37.793Z,12.75
2022-12-01T02:49:10.444Z,12.40
2022-12-01T02:51:40.184Z,13.25
2022-12-01T02:54:08.636Z,13.02
2022-12-01T02:56:35.426Z,12.10
2022-12-01T02:59:02.273Z,12.65
2022-12-01T03:01:35.098Z,12.82
2022-12-01T03:04:07.846Z,12.95
2022-12-01T03:06:43.518Z,11.88
2022-12-01T03:09:18.058Z,12.73
2022-12-01T03:12:30.017Z,12.75
2022-12-01T03:15:11.598Z,13.07
2022-12-01T03:18:01.268Z,13.70
2022-12-01T03:20:42.806Z,11.73
2022-12-01T03:23:16.038Z,12.43
2022-12-01T03:25:47.997Z,12.38
2022-12-01T03:28:21.546Z,13.32
2022-12-01T03:30:52.560Z,12.70
2022-12-01T03:33:27.280Z,14.18
2022-12-01T03:36:02.081Z,12.97
2022-12-01T03:38:30.637Z,12.85
2022-12-01T03:41:01.723Z,12.90
2022-12-01T03:43:34.671Z,13.30
2022-12-01T03:46:22.412Z,13.57
2022-12-01T03:48:50.476Z,12.53
2022-12-01T03:51:38.653Z,12.88
2022-12-01T03:54:16.530Z,12.48
2022-12-01T03:56:49.890Z,13.50
2022-12-01T03:59:21.018Z,12.98
2022-12-01T04:01:48.304Z,13.73
2022-12-01T04:04:15.336Z,13.23
2022-12-01T04:06:46.173Z,13.15
2022-12-01T04:09:13.514Z,12.48
2022-12-01T04:11:40.513Z,13.13
2022-12-01T04:14:07.222Z,13.27
2022-12-01T04:16:34.110Z,12.93
2022-12-01T04:19:00.907Z,12.65
2022-12-01T04:21:27.717Z,12.70
2022-12-01T04:23:54.446Z,12.43
2022-12-01T04:26:21.266Z,13.33
2022-12-01T04:28:48.363Z,12.30
2022-12-01T04:31:15.414Z,12.07
2022-12-01T04:33:42.297Z,11.88
2022-12-01T04:36:09.619Z,11.43
2022-12-01T04:38:36.528Z,12.87
2022-12-01T04:41:14.457Z,13.65
2022-12-01T04:43:42.014Z,12.82
2022-12-01T04:46:09.506Z,13.23
2022-12-01T04:48:39.997Z,13.05
2022-12-01T04:51:08.412Z,13.80
2022-12-01T04:53:36.578Z,13.70
2022-12-01T04:56:04.186Z,12.70
2022-12-01T04:58:32.889Z,12.43
2022-12-01T05:01:04.790Z,12.93
2022-12-01T05:03:31.670Z,13.37
2022-12-01T05:06:07.326Z,13.63
2022-12-01T05:08:34.280Z,14.35
2022-12-01T05:11:01.998Z,13.30
2022-12-01T05:13:28.879Z,13.20
2022-12-01T05:16:05.451Z,13.60
2022-12-01T05:18:32.369Z,13.88
2022-12-01T05:20:59.330Z,13.93
2022-12-01T05:23:28.190Z,13.85
2022-12-01T05:25:55.542Z,13.32
2022-12-01T05:28:24.062Z,14.10
2022-12-01T05:30:51.592Z,13.07
2022-12-01T05:33:18.521Z,12.75
2022-12-01T05:35:45.365Z,12.73
2022-12-01T05:38:12.144Z,12.43
2022-12-01T05:40:38.911Z,14.27
2022-12-01T05:43:06.762Z,13.13
2022-12-01T05:45:35.367Z,13.65
2022-12-01T05:48:03.018Z,13.63
2022-12-01T05:50:30.934Z,13.55
2022-12-01T05:52:57.992Z,13.80
2022-12-01T05:55:24.824Z,13.00
2022-12-01T05:57:51.658Z,12.88
2022-12-01T06:00:18.917Z,12.90
2022-12-01T06:02:45.795Z,12.40
2022-12-01T06:05:12.815Z,13.70
2022-12-01T06:07:39.563Z,13.27
2022-12-01T06:10:07.446Z,12.98
2022-12-01T06:12:34.244Z,13.32
2022-12-01T06:15:01.077Z,13.35
2022-12-01T06:17:28.075Z,13.67
2022-12-01T06:19:55.237Z,13.25
2022-12-01T06:22:22.001Z,14.05
2022-12-01T06:24:48.794Z,13.75
2022-12-01T06:27:15.565Z,13.05
2022-12-01T06:29:42.555Z,13.60
2022-12-01T06:32:09.624Z,12.70
2022-12-01T06:34:36.431Z,14.30
2022-12-01T06:37:03.266Z,12.40
2022-12-01T06:39:30.088Z,13.32
2022-12-01T06:41:56.870Z,12.97
2022-12-01T06:44:23.696Z,13.25
2022-12-01T06:46:50.463Z,12.85
2022-12-01T06:49:17.231Z,13.68
2022-12-01T06:51:44.890Z,13.65
2022-12-01T06:54:12.400Z,14.33
2022-12-01T06:56:39.282Z,13.38
2022-12-01T06:59:06.522Z,13.48
2022-12-01T07:01:33.573Z,13.55
2022-12-01T07:04:00.543Z,13.90
2022-12-01T07:06:30.284Z,13.80
2022-12-01T07:08:57.107Z,13.55
2022-12-01T07:11:23.930Z,13.68
2022-12-01T07:13:55.929Z,13.98
2022-12-01T07:16:23.286Z,14.48
2022-12-01T07:18:50.642Z,14.10
2022-12-01T07:21:17.515Z,13.90
2022-12-01T07:23:44.394Z,13.70
2022-12-01T07:26:14.441Z,13.13
2022-12-01T07:28:41.619Z,12.55
2022-12-01T07:31:16.771Z,13.17
2022-12-01T07:33:43.904Z,13.35
2022-12-01T07:36:12.116Z,13.23
2022-12-01T07:38:40.259Z,13.73
2022-12-01T07:41:13.257Z,13.55
2022-12-01T07:43:40.799Z,13.80
2022-12-01T07:46:23.727Z,13.27
2022-12-01T07:48:52.533Z,13.73
2022-12-01T07:51:21.121Z,13.63
2022-12-01T07:53:50.656Z,13.82
2022-12-01T07:56:19.219Z,13.17
2022-12-01T07:58:46.175Z,12.82
2022-12-01T08:01:18.526Z,13.60
2022-12-01T08:03:45.364Z,13.50
2022-12-01T08:06:12.262Z,13.10
2022-12-01T08:08:40.621Z,12.80
2022-12-01T08:11:12.280Z,13.13
2022-12-01T08:13:40.126Z,13.80
2022-12-01T08:16:10.484Z,14.07
2022-12-01T08:18:38.981Z,13.60
2022-12-01T08:21:07.778Z,13.47
2022-12-01T08:23:34.767Z,13.75
2022-12-01T08:26:07.952Z,12.43
2022-12-01T08:28:40.476Z,13.65
2022-12-01T08:31:31.955Z,14.52
2022-12-01T08:33:59.511Z,13.63
2022-12-01T08:36:26.352Z,13.63
2022-12-01T08:38:54.991Z,13.65
2022-12-01T08:41:23.471Z,12.90
2022-12-01T08:43:57.788Z,14.30
2022-12-01T08:46:29.549Z,13.57
2022-12-01T08:48:56.417Z,13.82
2022-12-01T08:51:24.051Z,13.80
2022-12-01T08:53:51.478Z,14.60
2022-12-01T08:56:23.273Z,13.88
2022-12-01T08:58:50.234Z,14.10
2022-12-01T09:01:18.388Z,14.32
2022-12-01T09:03:46.149Z,14.73
2022-12-01T09:06:19.155Z,14.10
2022-12-01T09:08:46.280Z,13.95
2022-12-01T09:11:15.698Z,14.43
2022-12-01T09:13:43.855Z,13.32
2022-12-01T09:16:14.185Z,13.93
2022-12-01T09:18:41.677Z,14.18
2022-12-01T09:21:20.909Z,13.63
2022-12-01T09:23:48.427Z,13.97
2022-12-01T09:26:16.429Z,13.82
2022-12-01T09:28:43.183Z,12.80
2022-12-01T09:31:12.146Z,14.05
2022-12-01T09:33:39.293Z,13.35
2022-12-01T09:36:08.336Z,13.77
2022-12-01T09:38:36.975Z,14.63
2022-12-01T09:41:23.155Z,14.07
2022-12-01T09:44:00.716Z,14.43
2022-12-01T09:46:32.778Z,14.25
2022-12-01T09:49:02.694Z,14.40
2022-12-01T09:51:30.182Z,13.90
2022-12-01T09:53:59.890Z,14.30
2022-12-01T09:56:39.755Z,13.70
2022-12-01T09:59:13.575Z,14.13
2022-12-01T10:01:44.539Z,13.93
2022-12-01T10:04:16.805Z,13.00
2022-12-01T10:06:54.360Z,15.05
2022-12-01T10:09:28.357Z,14.75
2022-12-01T10:12:05.982Z,14.20
2022-12-01T10:14:35.834Z,14.70
2022-12-01T10:17:23.594Z,14.48
2022-12-01T10:20:17.212Z,14.07
2022-12-01T10:23:05.283Z,13.90
2022-12-01T10:25:39.097Z,14.35
2022-12-01T10:28:23.825Z,14.67
2022-12-01T10:30:53.393Z,14.23
2022-12-01T10:33:24.935Z,14.63
2022-12-01T10:35:51.807Z,14.50
2022-12-01T10:38:35.467Z,15.15
2022-12-01T10:41:05.587Z,14.13
2022-12-01T10:43:44.279Z,14.57
2022-12-01T10:46:23.628Z,14.70
2022-12-01T10:48:58.708Z,14.30
2022-12-01T10:51:27.437Z,14.18
2022-12-01T10:54:08.089Z,14.17
2022-12-01T10:56:39.609Z,14.27
2022-12-01T10:59:22.858Z,15.30
2022-12-01T11:01:49.908Z,14.52
2022-12-01T11:04:34.563Z,14.18
2022-12-01T11:07:02.225Z,13.87
2022-12-01T11:09:30.682Z,13.63
2022-12-01T11:12:02.831Z,13.82
2022-12-01T11:14:51.181Z,14.38
2022-12-01T11:17:39.215Z,14.30
2022-12-01T11:20:26.330Z,13.67
2022-12-01T11:23:13.571Z,13.93
2022-12-01T11:25:40.372Z,13.48
2022-12-01T11:28:07.444Z,14.82
2022-12-01T11:30:34.367Z,14.73
2022-12-01T11:33:04.755Z,13.93
2022-12-01T11:35:35.101Z,14.00
2022-12-01T11:38:28.871Z,14.18
2022-12-01T11:41:00.582Z,14.35
2022-12-01T11:43:34.480Z,13.73
2022-12-01T11:46:05.495Z,14.27
2022-12-01T11:48:34.409Z,14.93
2022-12-01T11:51:09.439Z,13.50
2022-12-01T11:53:41.680Z,13.88
2022-12-01T11:56:22.636Z,14.68
2022-12-01T11:59:01.361Z,13.63
2022-12-01T12:01:50.688Z,14.23
2022-12-01T12:04:35.524Z,13.15
2022-12-01T12:07:24.506Z,13.90
2022-12-01T12:09:59.744Z,14.48
2022-12-01T12:12:38.345Z,13.73
2022-12-01T12:15:23.124Z,13.90
2022-12-01T12:17:55.824Z,13.68
2022-12-01T12:20:37.773Z,13.90
2022-12-01T12:23:26.315Z,13.63
2022-12-01T12:26:08.099Z,14.20
2022-12-01T12:28:52.706Z,14.05
2022-12-01T12:31:35.223Z,14.30
2022-12-01T12:34:39.019Z,13.63
2022-12-01T12:37:13.205Z,13.20
2022-12-01T12:40:09.497Z,13.70
2022-12-01T12:42:55.432Z,13.23
2022-12-01T12:45:32.421Z,13.95
2022-12-01T12:48:23.378Z,13.20
2022-12-01T12:51:17.374Z,13.50
2022-12-01T12:53:57.920Z,13.30
2022-12-01T12:56:27.772Z,13.20
2022-12-01T12:58:59.485Z,12.50
2022-12-01T13:01:34.582Z,13.10
2022-12-01T13:04:09.397Z,13.25
2022-12-01T13:06:51.896Z,12.50
2022-12-01T13:09:38.186Z,13.65
2022-12-01T13:12:13.478Z,12.55
2022-12-01T13:14:46.154Z,13.40
2022-12-01T13:17:32.171Z,13.77
2022-12-01T13:19:59.076Z,12.93
2022-12-01T13:22:32.972Z,13.32
2022-12-01T13:25:00.247Z,13.25
2022-12-01T13:27:31.684Z,13.15
2022-12-01T13:30:00.115Z,13.15
2022-12-01T13:32:40.052Z,13.67
2022-12-01T13:35:37.427Z,13.35
2022-12-01T13:38:36.852Z,12.68
2022-12-01T13:41:35.178Z,12.68
2022-12-01T13:44:21.790Z,12.68
2022-12-01T13:46:48.576Z,12.37
2022-12-01T13:49:37.143Z,13.35
2022-12-01T13:52:22.245Z,12.40
2022-12-01T13:55:07.103Z,12.70
2022-12-01T13:57:39.582Z,12.70
2022-12-01T14:00:06.493Z,13.47
2022-12-01T14:02:39.326Z,12.63
2022-12-01T14:05:24.587Z,13.07
2022-12-01T14:07:54.900Z,13.27
2022-12-01T14:10:31.679Z,12.32
2022-12-01T14:13:04.280Z,11.83
2022-12-01T14:15:31.035Z,12.63
2022-12-01T14:18:04.885Z,12.68
2022-12-01T14:20:35.819Z,11.43
2022-12-01T14:23:14.481Z,11.52
2022-12-01T14:25:42.557Z,12.23
2022-12-01T14:28:17.408Z,11.77
2022-12-01T14:30:44.909Z,11.57
2022-12-01T14:33:54.410Z,12.70
2022-12-01T14:36:23.952Z,11.50
2022-12-01T14:38:59.973Z,11.67
2022-12-01T14:41:38.215Z,11.88
2022-12-01T14:44:33.286Z,11.43
2022-12-01T14:47:00.204Z,11.57
2022-12-01T14:49:49.459Z,10.88
2022-12-01T14:52:28.341Z,11.50
2022-12-01T14:55:00.813Z,11.50
2022-12-01T14:57:33.024Z,10.95
2022-12-01T15:00:12.323Z,11.27
2022-12-01T15:02:51.534Z,11.05
2022-12-01T15:05:21.168Z,11.10
2022-12-01T15:07:50.918Z,10.88
2022-12-01T15:10:25.826Z,10.85
2022-12-01T15:12:54.043Z,11.25
2022-12-01T15:15:26.342Z,10.07
2022-12-01T15:17:54.863Z,11.50
2022-12-01T15:20:37.454Z,11.05
2022-12-01T15:23:15.847Z,11.90
2022-12-01T15:25:45.587Z,10.55
2022-12-01T15:28:18.218Z,11.95
2022-12-01T15:30:48.579Z,10.97
2022-12-01T15:33:36.776Z,11.50
2022-12-01T15:36:05.390Z,10.93
2022-12-01T15:38:35.800Z,10.45
2022-12-01T15:43:57.380Z,11.43
2022-12-01T15:46:32.501Z,11.48
2022-12-01T15:49:21.456Z,11.82
2022-12-01T15:51:50.559Z,11.88
2022-12-01T15:54:26.771Z,12.43
2022-12-01T15:56:55.841Z,11.40
2022-12-01T15:59:44.533Z,11.48
2022-12-01T16:02:20.754Z,11.63
2022-12-01T16:04:49.611Z,10.93
2022-12-01T16:07:16.695Z,12.32
2022-12-01T16:09:58.933Z,12.27
2022-12-01T16:12:28.124Z,13.15
2022-12-01T16:15:00.997Z,12.50
2022-12-01T16:17:42.030Z,12.60
2022-12-01T16:20:22.427Z,11.68
2022-12-01T16:22:54.187Z,12.80
2022-12-01T16:25:30.512Z,12.68
2022-12-01T16:27:58.523Z,13.05
2022-12-01T16:30:34.250Z,13.25
2022-12-01T16:33:13.923Z,12.68
2022-12-01T16:35:41.316Z,12.43
2022-12-01T16:38:17.875Z,11.68
2022-12-01T16:40:48.094Z,12.73
2022-12-01T16:43:20.447Z,12.60
2022-12-01T16:45:48.939Z,12.32
2022-12-01T16:48:16.579Z,12.03
2022-12-01T16:50:45.967Z,11.55
2022-12-01T16:53:13.674Z,11.23
2022-12-01T16:55:51.572Z,12.20
2022-12-01T16:58:19.171Z,12.15
2022-12-01T17:00:46.307Z,11.97
2022-12-01T17:03:17.243Z,12.55
2022-12-01T17:05:44.132Z,12.60
2022-12-01T17:08:11.667Z,13.43
2022-12-01T17:10:43.229Z,12.35
2022-12-01T17:13:10.771Z,11.70
2022-12-01T17:15:44.224Z,12.35
2022-12-01T17:18:11.600Z,12.20
2022-12-01T17:20:39.100Z,12.85
2022-12-01T17:23:06.561Z,12.52
2022-12-01T17:25:34.141Z,12.37
2022-12-01T17:28:01.390Z,12.10
2022-12-01T17:30:28.178Z,12.27
2022-12-01T17:32:58.021Z,11.25
2022-12-01T17:35:28.465Z,11.68
2022-12-01T17:37:55.395Z,11.90
2022-12-01T17:40:23.188Z,11.98
2022-12-01T17:42:50.861Z,12.00
2022-12-01T17:45:19.413Z,12.50
2022-12-01T17:47:46.830Z,11.55
2022-12-01T17:50:13.709Z,12.30
2022-12-01T17:52:40.825Z,13.63
2022-12-01T17:55:08.132Z,12.98
2022-12-01T17:57:35.705Z,12.43
2022-12-01T18:00:02.907Z,12.88
2022-12-01T18:02:35.686Z,12.00
2022-12-01T18:05:03.113Z,12.13
2022-12-01T18:07:30.606Z,12.77
2022-12-01T18:09:57.987Z,12.95
2022-12-01T18:12:25.303Z,12.73
2022-12-01T18:14:52.566Z,12.77
2022-12-01T18:17:20.276Z,12.93
2022-12-01T18:19:47.495Z,11.15
2022-12-01T18:22:14.865Z,12.10
2022-12-01T18:24:41.967Z,11.95
2022-12-01T18:27:10.803Z,12.87
2022-12-01T18:29:37.817Z,12.13
2022-12-01T18:32:05.521Z,11.82
2022-12-01T18:34:33.085Z,12.13
2022-12-01T18:37:03.592Z,11.55
2022-12-01T18:39:31.090Z,11.97
2022-12-01T18:41:59.009Z,12.07
2022-12-01T18:44:27.017Z,12.40
2022-12-01T18:46:54.696Z,12.18
2022-12-01T18:49:23.299Z,12.70
2022-12-01T18:51:50.648Z,13.00
2022-12-01T18:54:18.605Z,13.45
2022-12-01T18:56:51.043Z,13.55
2022-12-01T18:59:19.740Z,13.70
2022-12-01T19:01:49.686Z,13.40
2022-12-01T19:04:19.025Z,13.13
2022-12-01T19:06:47.382Z,13.77
2022-12-01T19:09:16.052Z,13.63
2022-12-01T19:11:44.364Z,12.98
2022-12-01T19:14:19.942Z,12.43
2022-12-01T19:16:48.592Z,13.27
2022-12-01T19:19:16.063Z,12.30
2022-12-01T19:21:43.754Z,12.30
2022-12-01T19:24:11.332Z,12.43
2022-12-01T19:26:40.463Z,13.65
2022-12-01T19:29:09.687Z,13.97
2022-12-01T19:31:37.857Z,13.45
2022-12-01T19:34:06.971Z,12.18
2022-12-01T19:36:35.534Z,12.48
2022-12-01T19:39:05.990Z,12.50
2022-12-01T19:41:39.275Z,12.40
2022-12-01T19:44:07.098Z,11.88
2022-12-01T19:46:35.434Z,12.60
2022-12-01T19:49:03.516Z,11.85
2022-12-01T19:51:34.788Z,13.38
2022-12-01T19:54:07.000Z,12.70
2022-12-01T19:56:35.431Z,11.98
2022-12-01T19:59:04.252Z,12.57
2022-12-01T20:01:31.930Z,11.90
2022-12-01T20:03:59.290Z,11.65
2022-12-01T20:06:31.579Z,12.23
2022-12-01T20:09:01.896Z,12.35
2022-12-01T20:11:30.473Z,12.95
2022-12-01T20:13:58.518Z,12.50
2022-12-01T20:16:28.163Z,12.38
2022-12-01T20:18:58.204Z,13.03
2022-12-01T20:21:28.320Z,11.75
2022-12-01T20:24:02.121Z,11.93
2022-12-01T20:26:35.684Z,11.95
2022-12-01T20:29:09.690Z,11.80
2022-12-01T20:31:39.044Z,11.10
2022-12-01T20:34:11.126Z,11.77
2022-12-01T20:36:40.341Z,12.50
2022-12-01T20:39:12.853Z,11.52
2022-12-01T20:41:42.173Z,11.60
2022-12-01T20:44:12.386Z,12.93
2022-12-01T20:46:42.180Z,11.95
2022-12-01T20:49:10.588Z,12.27
2022-12-01T20:51:39.592Z,12.02
2022-12-01T20:54:27.812Z,12.18
2022-12-01T20:57:00.607Z,12.40
2022-12-01T20:59:28.527Z,12.48
2022-12-01T21:01:55.823Z,13.00
2022-12-01T21:04:24.553Z,12.88
2022-12-01T21:06:56.787Z,12.50
2022-12-01T21:09:26.944Z,12.20
2022-12-01T21:11:56.736Z,12.77
2022-12-01T21:14:44.775Z,11.80
2022-12-01T21:17:44.016Z,11.30
2022-12-01T21:20:22.778Z,11.52
2022-12-01T21:22:51.755Z,12.30
2022-12-01T21:25:22.560Z,12.02
2022-12-01T21:27:50.059Z,12.20
2022-12-01T21:30:20.377Z,12.50
2022-12-01T21:32:48.961Z,12.75
2022-12-01T21:35:25.143Z,12.10
2022-12-01T21:38:00.289Z,12.70
2022-12-01T21:40:27.679Z,11.50
2022-12-01T21:42:56.348Z,12.35
2022-12-01T21:45:29.543Z,12.15
2022-12-01T21:48:18.559Z,12.40
2022-12-01T21:50:50.836Z,12.07
2022-12-01T21:53:21.442Z,12.05
2022-12-01T21:55:48.495Z,11.90
2022-12-01T21:58:27.164Z,12.45
2022-12-01T22:00:56.197Z,12.07
2022-12-01T22:03:37.164Z,11.60
2022-12-01T22:09:10.702Z,11.65
2022-12-01T22:11:37.474Z,11.95
2022-12-01T22:14:13.578Z,11.47
2022-12-01T22:16:44.151Z,11.80
2022-12-01T22:19:16.726Z,11.02
2022-12-01T22:21:48.456Z,11.32
2022-12-01T22:24:27.100Z,12.00
2022-12-01T22:27:09.578Z,12.07
2022-12-01T22:29:41.781Z,11.57
2022-12-01T22:32:14.546Z,12.45
2022-12-01T22:34:53.951Z,11.80
2022-12-01T22:37:30.113Z,11.57
2022-12-01T22:39:57.609Z,11.83
2022-12-01T22:42:33.539Z,11.55
2022-12-01T22:45:19.111Z,12.30
2022-12-01T22:47:46.104Z,11.70
2022-12-01T22:50:27.935Z,11.80
2022-12-01T22:53:00.085Z,12.00
2022-12-01T22:55:26.845Z,11.23
2022-12-01T22:57:54.592Z,11.80
2022-12-01T23:00:23.176Z,11.45
2022-12-01T23:02:52.365Z,11.10
2022-12-01T23:05:26.455Z,11.47
2022-12-01T23:07:54.811Z,11.63
2022-12-01T23:10:24.436Z,12.02
2022-12-01T23:12:53.565Z,11.75
2022-12-01T23:15:31.314Z,11.70
2022-12-01T23:18:19.417Z,10.57
2022-12-01T23:20:54.042Z,11.30
2022-12-01T23:23:42.509Z,11.00
2022-12-01T23:26:09.484Z,12.43
2022-12-01T23:28:37.639Z,11.13
2022-12-01T23:31:05.266Z,11.50
2022-12-01T23:33:33.692Z,12.60
2022-12-01T23:36:06.711Z,10.98
2022-12-01T23:38:38.610Z,12.35
2022-12-01T23:41:26.046Z,11.77
2022-12-01T23:44:02.062Z,12.27
2022-12-01T23:46:29.236Z,11.38
2022-12-01T23:49:01.354Z,11.93
2022-12-01T23:51:30.892Z,12.20
2022-12-01T23:54:00.763Z,11.27
2022-12-01T23:56:31.177Z,11.43
2022-12-01T23:59:00.747Z,11.15
